Time;durP1;ratioP1;P1;durP2;ratioP2;P2;SDS_P1;SDS_P2;PMS_P1;PMS_P2;Temp;Humidity;BMP_temperature;BMP_pressure;BME280_temperature;BME280_humidity;BME280_pressure;Samples;Min_cycle;Max_cycle;Signal;HPM_P1;HPM_P2
2023/09/16 00:00:46;;;;;;;15.05;11.18;;;;;;;-144.30;84.48;84760.34;5068838;28;20208;-54
2023/09/16 00:03:13;;;;;;;14.98;11.40;;;;;;;-144.30;84.77;84768.31;5068872;28;20301;-54
2023/09/16 00:05:40;;;;;;;13.18;11.77;;;;;;;-144.30;84.65;84764.31;5068792;28;20196;-53
2023/09/16 00:08:08;;;;;;;11.75;10.18;;;;;;;-144.30;84.28;84754.38;5068836;28;20195;-54
2023/09/16 00:10:35;;;;;;;16.35;10.65;;;;;;;-144.30;84.11;84740.47;5068897;28;20200;-54
2023/09/16 00:13:02;;;;;;;14.98;10.00;;;;;;;-144.30;83.65;84744.44;5069053;28;20192;-54
2023/09/16 00:15:29;;;;;;;12.00;10.23;;;;;;;-144.30;83.22;84784.19;5068730;28;20222;-55
2023/09/16 00:17:56;;;;;;;11.88;9.95;;;;;;;-144.30;82.77;84760.34;5068376;28;20243;-55
2023/09/16 00:20:25;;;;;;;11.77;9.75;;;;;;;-144.30;82.78;84720.59;5069089;28;20227;-55
2023/09/16 00:22:53;;;;;;;12.43;10.70;;;;;;;-144.30;82.74;84738.47;5068826;28;20204;-54
2023/09/16 00:25:21;;;;;;;10.77;9.77;;;;;;;-144.30;83.10;84740.47;5068772;28;20202;-54
2023/09/16 00:27:48;;;;;;;13.93;10.20;;;;;;;-144.30;82.68;84754.38;5068540;28;20238;-54
2023/09/16 00:30:15;;;;;;;11.13;10.00;;;;;;;-144.30;82.69;84762.34;5069111;28;20656;-53
2023/09/16 00:32:43;;;;;;;10.98;9.63;;;;;;;-144.30;82.57;84742.47;5068784;28;20460;-55
2023/09/16 00:35:09;;;;;;;11.40;10.02;;;;;;;-144.30;82.23;84730.53;5068684;28;20204;-55
2023/09/16 00:37:37;;;;;;;11.13;10.13;;;;;;;-144.30;82.12;84740.47;5068410;28;20219;-55
2023/09/16 00:40:05;;;;;;;11.32;10.27;;;;;;;-144.30;82.53;84748.44;5068874;28;20196;-55
2023/09/16 00:42:37;;;;;;;11.57;10.32;;;;;;;-144.30;83.03;84734.50;5068478;28;20210;-55
2023/09/16 00:45:06;;;;;;;11.05;9.98;;;;;;;-144.30;83.40;84776.25;5068551;28;20641;-54
2023/09/16 00:47:34;;;;;;;14.10;10.70;;;;;;;-144.30;84.19;84712.66;5071835;28;20646;-54
2023/09/16 00:50:04;;;;;;;12.77;10.95;;;;;;;-144.30;84.84;84756.38;5072671;28;20261;-53
2023/09/16 00:52:31;;;;;;;16.40;10.80;;;;;;;-144.30;85.10;84796.13;5072499;28;20640;-54
2023/09/16 00:54:58;;;;;;;11.88;10.75;;;;;;;-144.30;85.54;84774.25;5072508;28;20204;-55
2023/09/16 00:57:25;;;;;;;11.57;10.57;;;;;;;-144.30;85.72;84796.13;5072008;28;20562;-54
2023/09/16 00:59:56;;;;;;;13.52;10.98;;;;;;;-144.30;85.48;84792.16;5072497;28;20635;-54
2023/09/16 01:02:24;;;;;;;13.00;10.98;;;;;;;-144.30;85.76;84772.28;5072334;28;20723;-54
2023/09/16 01:04:51;;;;;;;12.13;10.98;;;;;;;-144.30;85.62;84764.31;5072142;28;20198;-53
2023/09/16 01:07:18;;;;;;;13.10;11.20;;;;;;;-144.30;85.25;84498.00;5072148;28;20196;-54
2023/09/16 01:09:46;;;;;;;12.43;11.13;;;;;;;-144.30;85.45;84744.44;5071946;28;20200;-54
2023/09/16 01:12:13;;;;;;;13.52;11.73;;;;;;;-144.30;85.89;84744.44;5071987;28;20204;-55
2023/09/16 01:14:40;;;;;;;12.88;11.52;;;;;;;-144.30;86.50;84752.41;5071972;28;20204;-54
2023/09/16 01:17:16;;;;;;;13.23;11.63;;;;;;;-144.30;86.66;84754.38;5071790;28;20202;-54
2023/09/16 01:19:48;;;;;;;12.82;11.52;;;;;;;-144.30;87.03;84760.34;5071924;28;20195;-55
2023/09/16 01:22:15;;;;;;;13.05;11.82;;;;;;;-144.30;87.14;84738.47;5071825;28;20208;-53
2023/09/16 01:24:42;;;;;;;13.57;11.98;;;;;;;-144.30;87.11;84784.19;5071604;28;20196;-55
2023/09/16 01:27:10;;;;;;;24.10;11.15;;;;;;;-144.30;87.02;84768.31;5071853;28;20753;-53
2023/09/16 01:29:37;;;;;;;19.13;13.32;;;;;;;-144.30;87.23;84774.25;5071678;28;20196;-53
2023/09/16 01:32:08;;;;;;;15.10;12.77;;;;;;;-144.30;87.37;84768.31;5072102;28;20621;-55
2023/09/16 01:34:42;;;;;;;14.70;13.27;;;;;;;-144.30;87.59;84772.28;5072055;28;20580;-54
2023/09/16 01:37:13;;;;;;;16.38;14.68;;;;;;;-144.30;87.79;84796.13;5071647;28;20206;-54
2023/09/16 01:39:41;;;;;;;16.63;15.02;;;;;;;-144.30;88.11;84742.47;5071727;28;20269;-54
2023/09/16 01:42:11;;;;;;;19.58;15.07;;;;;;;-144.30;88.31;84800.09;5071742;28;20199;-53
2023/09/16 01:44:38;;;;;;;19.58;14.13;;;;;;;-144.30;88.94;84792.16;5071568;28;20234;-55
2023/09/16 01:47:07;;;;;;;16.08;14.48;;;;;;;-144.30;89.33;84831.91;5071694;28;20204;-55
2023/09/16 01:49:34;;;;;;;16.75;14.23;;;;;;;-144.30;89.64;84823.94;5071192;28;20196;-55
2023/09/16 01:52:00;;;;;;;19.52;14.65;;;;;;;-144.30;89.96;84774.25;5071510;28;20200;-54
2023/09/16 01:54:27;;;;;;;15.82;14.23;;;;;;;-144.30;89.77;84792.16;5071362;28;20210;-54
2023/09/16 01:56:54;;;;;;;18.70;15.18;;;;;;;-144.30;89.85;84823.94;5071339;28;20291;-54
2023/09/16 01:59:23;;;;;;;15.25;13.63;;;;;;;-144.30;89.61;84746.44;5070590;28;20660;-54
2023/09/16 02:01:50;;;;;;;16.35;14.65;;;;;;;-144.30;89.76;84796.13;5071092;28;20295;-55
2023/09/16 02:04:16;;;;;;;16.10;14.05;;;;;;;-144.30;89.62;84823.94;5071137;28;20226;-55
2023/09/16 02:06:46;;;;;;;18.15;16.33;;;;;;;-144.30;89.89;84819.97;5070870;28;20196;-53
2023/09/16 02:09:13;;;;;;;18.42;16.52;;;;;;;-144.30;90.02;84802.09;5070950;28;20192;-53
2023/09/16 02:11:40;;;;;;;16.67;14.45;;;;;;;-144.30;89.98;84804.06;5070941;28;20200;-54
2023/09/16 02:14:10;;;;;;;21.70;14.98;;;;;;;-144.30;89.74;84814.00;5071217;28;20682;-54
2023/09/16 02:16:39;;;;;;;19.23;13.95;;;;;;;-144.30;90.05;84812.03;5071215;28;20483;-54
2023/09/16 02:19:06;;;;;;;17.83;15.15;;;;;;;-144.30;90.53;84802.09;5070677;28;20635;-54
2023/09/16 02:21:33;;;;;;;17.80;15.23;;;;;;;-144.30;90.43;84784.19;5070615;28;20214;-54
2023/09/16 02:24:00;;;;;;;19.52;15.65;;;;;;;-144.30;90.36;84823.94;5070857;28;20208;-54
2023/09/16 02:26:26;;;;;;;16.70;14.98;;;;;;;-144.30;90.66;84821.97;5070660;28;20207;-54
2023/09/16 02:28:53;;;;;;;32.67;25.95;;;;;;;-144.30;90.59;84806.06;5070634;28;20192;-54
2023/09/16 02:31:20;;;;;;;20.27;17.67;;;;;;;-144.30;90.58;84839.84;5070437;28;20196;-54
2023/09/16 02:33:48;;;;;;;22.67;18.45;;;;;;;-144.30;90.99;84796.13;5070625;28;20200;-54
2023/09/16 02:36:15;;;;;;;19.50;16.70;;;;;;;-144.30;91.02;84837.88;5070536;28;20207;-54
2023/09/16 02:38:42;;;;;;;23.23;18.83;;;;;;;-144.30;91.19;84859.72;5070518;28;20219;-54
2023/09/16 02:41:09;;;;;;;18.15;15.75;;;;;;;-144.30;91.08;84802.09;5071078;28;20200;-54
2023/09/16 02:43:36;;;;;;;16.90;15.23;;;;;;;-144.30;90.94;84847.81;5070289;28;20594;-54
2023/09/16 02:46:03;;;;;;;16.10;14.57;;;;;;;-144.30;91.01;84819.97;5070302;28;20208;-54
2023/09/16 02:48:30;;;;;;;22.70;16.45;;;;;;;-144.30;90.70;84821.97;5070276;28;20196;-54
2023/09/16 02:50:58;;;;;;;22.80;18.88;;;;;;;-144.30;90.81;84812.03;5070339;28;20196;-54
2023/09/16 02:53:25;;;;;;;23.02;19.35;;;;;;;-144.30;90.90;84726.56;5070234;28;20195;-55
2023/09/16 02:55:55;;;;;;;18.25;16.45;;;;;;;-144.30;90.73;84794.13;5064273;28;20295;-54
2023/09/16 02:58:21;;;;;;;18.15;15.45;;;;;;;-144.30;91.26;84792.16;5069668;28;20683;-54
2023/09/16 03:00:48;;;;;;;18.27;15.70;;;;;;;-144.30;91.73;84823.94;5069804;28;20206;-54
2023/09/16 03:03:15;;;;;;;17.27;15.57;;;;;;;-144.30;91.96;84847.81;5070140;28;20204;-54
2023/09/16 03:05:45;;;;;;;21.35;16.77;;;;;;;-144.30;92.45;84851.78;5069886;28;20214;-53
2023/09/16 03:08:13;;;;;;;21.85;18.33;;;;;;;-144.30;92.67;84831.91;5070118;28;20191;-54
2023/09/16 03:10:40;;;;;;;21.63;18.90;;;;;;;-144.30;92.76;84847.81;5068647;28;20200;-54
2023/09/16 03:13:07;;;;;;;22.63;18.40;;;;;;;-144.30;92.73;84827.94;5069749;28;20200;-54
2023/09/16 03:15:35;;;;;;;20.48;17.10;;;;;;;-144.30;92.72;84718.63;5069775;28;20585;-54
2023/09/16 03:18:03;;;;;;;25.65;18.40;;;;;;;-144.30;92.78;84843.84;5069605;28;20232;-54
2023/09/16 03:20:29;;;;;;;21.08;18.58;;;;;;;-144.30;92.93;84835.88;5069827;28;20661;-53
2023/09/16 03:22:56;;;;;;;24.85;18.02;;;;;;;-144.30;93.10;84843.84;5069673;28;20300;-54
2023/09/16 03:25:25;;;;;;;20.65;18.55;;;;;;;-144.30;93.21;84833.88;5069508;28;20210;-54
2023/09/16 03:27:51;;;;;;;18.50;16.65;;;;;;;-144.30;92.86;84869.66;5069335;28;20562;-54
2023/09/16 03:30:18;;;;;;;24.85;18.90;;;;;;;-144.30;92.65;84823.94;5069471;28;20216;-54
2023/09/16 03:32:45;;;;;;;22.35;17.08;;;;;;;-144.30;92.12;84804.06;5069240;28;20250;-53
2023/09/16 03:35:12;;;;;;;23.52;18.42;;;;;;;-144.30;92.36;84804.06;5069584;28;20326;-55
2023/09/16 03:37:39;;;;;;;19.63;17.42;;;;;;;-144.30;92.51;84818.00;5069306;28;20206;-54
2023/09/16 03:40:07;;;;;;;20.17;17.05;;;;;;;-144.30;92.56;84827.94;5069549;28;20229;-55
2023/09/16 03:42:35;;;;;;;23.85;17.45;;;;;;;-144.30;92.24;84825.94;5069295;28;20218;-54
2023/09/16 03:45:02;;;;;;;20.10;17.60;;;;;;;-144.30;91.97;84812.03;5069250;28;20208;-54
2023/09/16 03:47:29;;;;;;;27.98;17.20;;;;;;;-144.30;91.87;84796.13;5069122;28;20741;-55
2023/09/16 03:49:56;;;;;;;20.20;16.50;;;;;;;-144.30;91.75;84796.13;5069152;28;20218;-54
2023/09/16 03:52:23;;;;;;;19.55;17.23;;;;;;;-144.30;91.28;84796.13;5069177;28;20611;-54
2023/09/16 03:54:50;;;;;;;20.80;17.40;;;;;;;-144.30;91.60;84810.03;5068910;28;20208;-55
2023/09/16 03:57:17;;;;;;;20.92;18.30;;;;;;;-144.30;91.31;84812.03;5069355;28;20218;-55
2023/09/16 03:59:45;;;;;;;20.50;18.08;;;;;;;-144.30;90.97;84819.97;5068856;28;20703;-54
2023/09/16 04:02:12;;;;;;;21.13;18.02;;;;;;;-144.30;90.58;84764.31;5068786;28;20202;-54
2023/09/16 04:04:39;;;;;;;19.02;17.02;;;;;;;-144.30;89.44;84746.44;5069058;28;20668;-55
2023/09/16 04:07:06;;;;;;;20.92;16.45;;;;;;;-144.30;89.65;84806.06;5068853;28;20206;-54
2023/09/16 04:09:33;;;;;;;19.67;17.13;;;;;;;-144.30;89.67;84748.44;5068626;28;20283;-54
2023/09/16 04:11:59;;;;;;;20.45;16.83;;;;;;;-144.30;89.49;84760.34;5064481;28;20216;-56
2023/09/16 04:14:27;;;;;;;20.45;17.10;;;;;;;-144.30;89.30;84782.22;5068760;28;20283;-53
2023/09/16 04:16:55;;;;;;;20.30;16.45;;;;;;;-144.30;89.52;84772.28;5068571;28;20641;-54
2023/09/16 04:19:22;;;;;;;25.13;16.73;;;;;;;-144.30;89.47;84798.13;5068443;28;20763;-54
2023/09/16 04:21:50;;;;;;;18.83;16.73;;;;;;;-144.30;89.13;84752.41;5073007;28;20230;-54
2023/09/16 04:24:16;;;;;;;18.58;16.70;;;;;;;-144.30;88.88;84748.44;5068694;28;20208;-54
2023/09/16 04:26:43;;;;;;;20.30;17.13;;;;;;;-144.30;89.13;84760.34;5067651;28;20302;-54
2023/09/16 04:29:10;;;;;;;16.88;15.13;;;;;;;-144.30;88.78;84631.16;5068078;28;20206;-54
2023/09/16 04:31:37;;;;;;;21.55;16.15;;;;;;;-144.30;88.77;84764.31;5067630;28;20200;-55
2023/09/16 04:34:06;;;;;;;28.45;17.40;;;;;;;-144.30;88.72;84726.56;5065919;28;20314;-54
2023/09/16 04:36:32;;;;;;;20.73;15.95;;;;;;;-144.30;88.47;84720.59;5068161;28;20206;-54
2023/09/16 04:38:59;;;;;;;19.73;16.52;;;;;;;-144.30;88.20;84742.47;5068455;28;20609;-55
2023/09/16 04:41:26;;;;;;;27.17;17.00;;;;;;;-144.30;88.45;84732.53;5068600;28;20202;-55
2023/09/16 04:43:54;;;;;;;26.58;17.15;;;;;;;-144.30;88.67;84752.41;5068517;28;20206;-55
2023/09/16 04:46:21;;;;;;;20.67;16.00;;;;;;;-144.30;88.85;84728.56;5068810;28;20225;-54
2023/09/16 04:48:49;;;;;;;21.48;15.82;;;;;;;-144.30;88.89;84734.50;5068506;28;20499;-54
2023/09/16 04:51:17;;;;;;;22.02;16.45;;;;;;;-144.30;88.83;84732.53;5068802;28;20677;-54
2023/09/16 04:53:44;;;;;;;24.15;17.50;;;;;;;-144.30;88.87;84446.31;5068613;28;20599;-55
2023/09/16 04:56:11;;;;;;;21.52;16.33;;;;;;;-144.30;88.48;84752.41;5068521;28;20238;-54
2023/09/16 04:58:38;;;;;;;20.27;16.48;;;;;;;-144.30;88.28;84760.34;5068059;28;20222;-54
2023/09/16 05:01:05;;;;;;;20.58;15.90;;;;;;;-144.30;88.16;84700.72;5068451;28;20565;-55
2023/09/16 05:03:32;;;;;;;19.10;15.93;;;;;;;-144.30;88.26;84736.50;5068144;28;20207;-55
2023/09/16 05:05:59;;;;;;;22.73;16.77;;;;;;;-144.30;88.07;84688.81;5067749;28;20208;-54
2023/09/16 05:08:28;;;;;;;23.95;15.57;;;;;;;-144.30;87.75;84704.69;5064947;28;20236;-55
2023/09/16 05:10:55;;;;;;;20.90;16.77;;;;;;;-144.30;87.23;84720.59;5067884;28;20200;-53
2023/09/16 05:13:22;;;;;;;20.83;16.38;;;;;;;-144.30;87.36;84700.72;5068200;28;20596;-55
2023/09/16 05:15:50;;;;;;;21.30;16.45;;;;;;;-144.30;86.88;84668.94;5068003;28;20311;-55
2023/09/16 05:18:17;;;;;;;18.50;16.52;;;;;;;-144.30;86.10;84653.03;5067200;28;20359;-55
2023/09/16 05:20:44;;;;;;;27.58;16.38;;;;;;;-144.30;85.93;84722.59;5067310;28;20200;-55
2023/09/16 05:23:12;;;;;;;19.15;15.98;;;;;;;-144.30;86.06;84684.81;5067850;28;20199;-54
2023/09/16 05:25:46;;;;;;;22.88;16.33;;;;;;;-144.30;85.69;84676.88;5068148;28;20192;-54
2023/09/16 05:28:13;;;;;;;21.02;17.27;;;;;;;-144.30;85.91;84664.94;5068156;28;20195;-56
2023/09/16 05:30:42;;;;;;;21.30;16.30;;;;;;;-144.30;86.17;84708.66;5068068;28;20195;-55
2023/09/16 05:33:10;;;;;;;30.40;17.35;;;;;;;-144.30;86.66;84682.84;5069036;28;20196;-54
2023/09/16 05:35:37;;;;;;;20.50;17.98;;;;;;;-144.30;86.78;84692.78;5071615;28;20200;-55
2023/09/16 05:38:04;;;;;;;17.98;16.25;;;;;;;-144.30;86.78;84696.75;5071752;28;20593;-55
2023/09/16 05:40:31;;;;;;;21.13;17.17;;;;;;;-144.30;86.56;84678.84;5071385;28;20707;-55
2023/09/16 05:42:59;;;;;;;26.25;19.23;;;;;;;-144.30;86.76;84730.53;5071280;28;20286;-53
2023/09/16 05:45:26;;;;;;;24.55;16.98;;;;;;;-144.30;87.30;84660.97;5071613;28;20684;-55
2023/09/16 05:47:54;;;;;;;26.08;17.33;;;;;;;-144.30;88.10;84724.56;5066935;28;20207;-54
2023/09/16 05:50:21;;;;;;;25.17;18.33;;;;;;;-144.30;88.40;84718.63;5071123;28;20196;-54
2023/09/16 05:52:48;;;;;;;25.67;17.42;;;;;;;-144.30;88.19;84696.75;5070697;28;20480;-55
2023/09/16 05:55:15;;;;;;;26.98;19.05;;;;;;;-144.30;87.96;84712.66;5069497;28;20208;-54
2023/09/16 05:57:42;;;;;;;27.60;17.83;;;;;;;-144.30;88.04;84674.88;5069546;28;20188;-54
2023/09/16 06:00:11;;;;;;;23.55;19.13;;;;;;;-144.30;87.97;84708.66;5070400;28;20215;-54
2023/09/16 06:02:39;;;;;;;22.02;17.85;;;;;;;-144.30;88.13;84714.63;5070142;28;20196;-56
2023/09/16 06:05:07;;;;;;;24.92;19.13;;;;;;;-144.30;87.79;85046.56;5071119;28;20591;-55
2023/09/16 06:07:34;;;;;;;24.83;18.35;;;;;;;-144.30;87.29;84708.66;5069581;28;20265;-53
2023/09/16 06:10:01;;;;;;;23.42;16.85;;;;;;;-144.30;86.90;84710.66;5071093;28;20196;-54
2023/09/16 06:12:28;;;;;;;23.60;18.25;;;;;;;-144.30;86.22;84690.78;5071650;28;20196;-55
2023/09/16 06:14:55;;;;;;;26.55;16.33;;;;;;;-144.30;84.99;84698.75;5071733;28;20676;-54
2023/09/16 06:17:23;;;;;;;20.90;17.17;;;;;;;-144.30;84.02;84684.81;5071014;28;20232;-54
2023/09/16 06:19:54;;;;;;;26.02;16.50;;;;;;;-144.30;84.28;84641.09;5071063;28;20224;-54
2023/09/16 06:22:21;;;;;;;25.05;20.35;;;;;;;-144.30;84.72;84712.66;5071202;28;20200;-55
2023/09/16 06:24:48;;;;;;;26.45;21.42;;;;;;;-144.30;85.58;84662.97;5071110;28;20854;-54
2023/09/16 06:27:15;;;;;;;47.85;28.17;;;;;;;-144.30;86.52;84651.03;5071074;28;20283;-54
2023/09/16 06:29:43;;;;;;;27.35;24.35;;;;;;;-144.30;87.14;84698.75;5071165;28;20642;-54
2023/09/16 06:32:10;;;;;;;34.25;27.00;;;;;;;-144.30;87.51;84680.84;5071233;28;20580;-54
2023/09/16 06:34:38;;;;;;;29.10;21.88;;;;;;;-144.30;88.19;84891.53;5071112;28;20207;-54
2023/09/16 06:37:06;;;;;;;24.08;20.33;;;;;;;-144.30;88.62;84728.56;5071012;28;20192;-54
2023/09/16 06:39:33;;;;;;;24.17;21.42;;;;;;;-144.30;89.07;84704.69;5070407;28;20224;-54
2023/09/16 06:42:00;;;;;;;31.75;23.40;;;;;;;-144.30;89.20;84702.72;5070828;28;20206;-54
2023/09/16 06:44:26;;;;;;;25.13;21.58;;;;;;;-144.30;89.52;84730.53;5071287;28;20541;-54
2023/09/16 06:46:53;;;;;;;23.10;20.42;;;;;;;-144.30;89.36;84734.50;5070726;28;20218;-53
2023/09/16 06:49:20;;;;;;;27.77;20.08;;;;;;;-144.30;89.61;84686.81;5070802;28;20200;-54
2023/09/16 06:51:49;;;;;;;24.17;19.27;;;;;;;-144.30;89.44;84664.94;5070781;28;20192;-55
2023/09/16 06:54:16;;;;;;;25.92;22.05;;;;;;;-144.30;89.46;84710.66;5070762;28;20275;-54
2023/09/16 06:56:43;;;;;;;23.75;19.38;;;;;;;-144.30;89.13;84736.50;5069731;28;20195;-56
2023/09/16 06:59:09;;;;;;;28.05;20.92;;;;;;;-144.30;88.53;84623.22;5070082;28;20683;-54
2023/09/16 07:01:36;;;;;;;26.80;20.95;;;;;;;-144.30;88.74;84662.97;5069817;28;20210;-56
2023/09/16 07:04:03;;;;;;;32.95;22.52;;;;;;;-144.30;88.89;84720.59;5070373;28;20215;-55
2023/09/16 07:06:30;;;;;;;29.25;23.95;;;;;;;-144.30;90.37;84682.84;5070518;28;20204;-54
2023/09/16 07:08:59;;;;;;;34.38;28.23;;;;;;;-144.30;92.07;84740.47;5070633;28;20200;-54
2023/09/16 07:11:26;;;;;;;34.67;26.75;;;;;;;-144.30;92.83;84728.56;5070555;28;20283;-54
2023/09/16 07:13:53;;;;;;;25.42;22.40;;;;;;;-144.30;93.82;84764.31;5069870;28;20196;-57
2023/09/16 07:16:20;;;;;;;26.90;21.60;;;;;;;-144.30;94.45;84764.31;5070655;28;20711;-56
2023/09/16 07:18:47;;;;;;;34.35;30.10;;;;;;;-144.30;95.04;84724.56;5069986;28;20238;-56
2023/09/16 07:21:14;;;;;;;34.20;25.30;;;;;;;-144.30;95.91;84760.34;5070161;28;20227;-54
2023/09/16 07:23:41;;;;;;;26.73;23.98;;;;;;;-144.30;96.22;84780.22;5070316;28;20302;-55
2023/09/16 07:26:09;;;;;;;31.67;24.35;;;;;;;-144.30;96.46;84768.31;5070202;28;20198;-55
2023/09/16 07:28:36;;;;;;;30.05;25.33;;;;;;;-144.30;96.03;84734.50;5070104;28;20195;-55
2023/09/16 07:31:03;;;;;;;35.70;25.67;;;;;;;-144.30;96.29;84756.38;5070179;28;20200;-54
2023/09/16 07:33:30;;;;;;;34.58;29.02;;;;;;;-144.30;96.97;84780.22;5069799;28;20192;-55
2023/09/16 07:35:57;;;;;;;30.17;25.63;;;;;;;-144.30;97.29;84752.41;5070230;28;20196;-55
2023/09/16 07:38:24;;;;;;;29.65;23.45;;;;;;;-144.30;97.24;84752.41;5070253;28;20661;-55
2023/09/16 07:40:53;;;;;;;28.35;23.83;;;;;;;-144.30;97.04;84732.53;5069820;28;20226;-55
2023/09/16 07:43:21;;;;;;;28.55;24.00;;;;;;;-144.30;97.49;84760.34;5070463;28;20632;-55
2023/09/16 07:45:48;;;;;;;34.22;23.65;;;;;;;-144.30;97.45;84792.16;5069733;28;20210;-55
2023/09/16 07:48:17;;;;;;;28.35;23.80;;;;;;;-144.30;97.63;84740.47;5069800;28;20553;-55
2023/09/16 07:50:44;;;;;;;28.63;24.05;;;;;;;-144.30;97.72;84738.47;5069930;28;20307;-54
2023/09/16 07:53:11;;;;;;;25.20;21.73;;;;;;;-144.30;97.46;84732.53;5070020;28;20615;-54
2023/09/16 07:55:40;;;;;;;31.60;22.70;;;;;;;-144.30;96.84;84726.56;5068875;28;20199;-55
2023/09/16 07:58:07;;;;;;;24.67;22.08;;;;;;;-144.30;96.64;84752.41;5069641;28;20591;-55
2023/09/16 08:00:35;;;;;;;25.38;22.58;;;;;;;-144.30;96.02;84756.38;5069415;28;20228;-55
2023/09/16 08:03:02;;;;;;;26.70;21.10;;;;;;;-144.30;95.98;84720.59;5069844;28;20196;-55
2023/09/16 08:05:29;;;;;;;25.00;20.88;;;;;;;-144.30;96.17;84722.59;5069322;28;20202;-56
2023/09/16 08:07:56;;;;;;;24.63;21.10;;;;;;;-144.30;95.50;84716.63;5069491;28;20283;-55
2023/09/16 08:10:23;;;;;;;24.20;20.02;;;;;;;-144.30;95.40;84694.75;5068389;28;20572;-55
2023/09/16 08:12:50;;;;;;;27.75;22.27;;;;;;;-144.30;95.76;84726.56;5068312;28;20275;-56
2023/09/16 08:15:17;;;;;;;33.60;21.75;;;;;;;-144.30;95.25;84668.94;5068026;28;20200;-54
2023/09/16 08:17:45;;;;;;;23.88;21.02;;;;;;;-144.30;95.37;84730.53;5067943;28;20219;-60
2023/09/16 08:20:12;;;;;;;22.42;20.02;;;;;;;-144.30;96.13;84756.38;5067945;28;20321;-55
2023/09/16 08:22:39;;;;;;;23.00;19.45;;;;;;;-144.30;95.93;84774.25;5067734;28;20198;-55
2023/09/16 08:25:07;;;;;;;26.70;18.67;;;;;;;-144.30;96.06;84764.31;5067964;28;20199;-55
2023/09/16 08:27:33;;;;;;;25.23;19.38;;;;;;;-144.30;96.55;84808.06;5067849;28;20200;-55
2023/09/16 08:30:00;;;;;;;22.83;19.02;;;;;;;-144.30;97.31;84756.38;5068529;28;20289;-55
2023/09/16 08:32:28;;;;;;;26.33;18.95;;;;;;;-144.30;97.37;84672.91;5068028;28;20199;-55
2023/09/16 08:34:57;;;;;;;25.48;19.95;;;;;;;-144.30;98.60;84788.19;5068126;28;20249;-55
2023/09/16 08:37:24;;;;;;;24.33;20.67;;;;;;;-144.30;99.27;84814.00;5067963;28;20510;-56
2023/09/16 08:39:51;;;;;;;21.92;18.42;;;;;;;-144.30;99.62;84806.06;5067581;28;20862;-54
2023/09/16 08:42:25;;;;;;;26.75;20.92;;;;;;;-144.30;99.66;84792.16;5067730;28;20196;-55
2023/09/16 08:44:54;;;;;;;30.92;21.85;;;;;;;-144.30;100.00;84804.06;5067920;28;20656;-55
2023/09/16 08:47:29;;;;;;;25.27;20.63;;;;;;;-144.30;100.00;84802.09;5065801;28;20211;-56
2023/09/16 08:50:05;;;;;;;28.08;22.48;;;;;;;-144.30;100.00;84808.06;5069208;28;20195;-55
2023/09/16 08:52:38;;;;;;;29.70;20.88;;;;;;;-144.30;100.00;84768.31;5069047;28;20268;-56
2023/09/16 08:55:08;;;;;;;23.88;21.38;;;;;;;-144.30;100.00;84786.19;5069768;28;20202;-55
2023/09/16 08:57:35;;;;;;;24.92;20.88;;;;;;;-144.30;100.00;84738.47;5069157;28;20658;-55
2023/09/16 09:00:04;;;;;;;22.95;19.80;;;;;;;-144.30;99.42;84780.22;5069088;28;20234;-55
2023/09/16 09:02:31;;;;;;;29.35;23.42;;;;;;;-144.30;99.52;84750.41;5068403;28;20708;-56
2023/09/16 09:05:00;;;;;;;24.52;20.50;;;;;;;-144.30;99.45;84764.31;5068972;28;20195;-56
2023/09/16 09:07:32;;;;;;;33.50;27.13;;;;;;;-144.30;100.00;84742.47;5068827;28;20302;-56
2023/09/16 09:09:59;;;;;;;21.52;19.17;;;;;;;-144.30;98.56;84742.47;5072628;28;20202;-55
2023/09/16 09:12:26;;;;;;;22.75;18.63;;;;;;;-144.30;96.13;84732.53;5072728;28;20200;-55
2023/09/16 09:14:53;;;;;;;21.95;19.63;;;;;;;-144.30;95.16;84672.91;5072466;28;20210;-54
2023/09/16 09:17:22;;;;;;;21.67;19.55;;;;;;;-144.30;95.85;84694.75;5072416;28;20231;-54
2023/09/16 09:19:50;;;;;;;22.40;19.33;;;;;;;-144.30;95.63;84676.88;5072262;28;20616;-54
2023/09/16 09:22:18;;;;;;;18.73;16.25;;;;;;;-144.30;93.38;84649.03;5072508;28;20227;-55
2023/09/16 09:24:47;;;;;;;21.80;16.63;;;;;;;-144.30;91.46;84651.03;5072289;28;20202;-55
2023/09/16 09:27:13;;;;;;;20.27;17.60;;;;;;;-144.30;90.98;84575.50;5072327;28;20206;-54
2023/09/16 09:29:41;;;;;;;19.55;16.90;;;;;;;-144.30;91.23;84577.50;5071991;28;20279;-54
2023/09/16 09:32:10;;;;;;;23.65;17.48;;;;;;;-144.30;91.16;84579.50;5072092;28;20195;-54
2023/09/16 09:34:37;;;;;;;23.23;17.77;;;;;;;-144.30;91.11;84615.25;5071264;28;20214;-55
2023/09/16 09:37:14;;;;;;;21.77;19.45;;;;;;;-144.30;91.39;84593.41;5072338;28;20226;-55
2023/09/16 09:39:42;;;;;;;22.05;18.80;;;;;;;-144.30;91.40;84561.59;5071994;28;20646;-54
2023/09/16 09:42:09;;;;;;;21.80;19.55;;;;;;;-144.30;91.60;84577.50;5072240;28;20254;-54
2023/09/16 09:44:36;;;;;;;21.15;19.02;;;;;;;-144.30;91.31;84585.44;5071059;28;20202;-54
2023/09/16 09:47:03;;;;;;;22.67;18.45;;;;;;;-144.30;90.99;84567.56;5070431;28;20206;-54
2023/09/16 09:49:30;;;;;;;21.73;17.23;;;;;;;-144.30;90.57;84569.53;5070350;28;20206;-55
2023/09/16 09:51:57;;;;;;;20.42;18.48;;;;;;;-144.30;90.60;84553.66;5070623;28;20548;-54
2023/09/16 09:54:24;;;;;;;22.73;18.05;;;;;;;-144.30;90.28;84581.47;5071188;28;20231;-54
2023/09/16 09:56:52;;;;;;;20.95;18.65;;;;;;;-144.30;90.78;84549.69;5071370;28;20195;-55
2023/09/16 09:59:21;;;;;;;21.70;19.17;;;;;;;-144.30;89.83;84525.81;5071670;28;20207;-54
2023/09/16 10:01:48;;;;;;;20.92;17.65;;;;;;;-144.30;88.89;84527.81;5071211;28;20330;-55
2023/09/16 10:04:16;;;;;;;21.02;17.67;;;;;;;-144.30;89.47;84432.41;5071399;28;20199;-54
2023/09/16 10:06:43;;;;;;;25.83;23.02;;;;;;;-144.30;87.73;84406.59;5071706;28;20196;-54
2023/09/16 10:09:09;;;;;;;18.00;15.65;;;;;;;-144.30;84.40;84374.78;5071967;28;20196;-54
2023/09/16 10:11:37;;;;;;;20.48;15.70;;;;;;;-144.30;83.09;84354.91;5071651;28;20203;-54
2023/09/16 10:14:06;;;;;;;18.85;17.05;;;;;;;-144.30;84.01;84327.09;5071546;28;20280;-53
2023/09/16 10:16:33;;;;;;;18.23;16.27;;;;;;;-144.30;82.90;84285.34;5071259;28;20196;-55
2023/09/16 10:19:00;;;;;;;19.65;17.23;;;;;;;-144.30;83.16;84293.31;5070752;28;20227;-55
2023/09/16 10:21:28;;;;;;;21.95;19.27;;;;;;;-144.30;83.08;84237.66;5066372;28;20315;-54
2023/09/16 10:23:56;;;;;;;20.58;18.42;;;;;;;-144.30;82.47;84261.50;5071345;28;20757;-55
2023/09/16 10:26:22;;;;;;;24.58;16.65;;;;;;;-144.30;81.75;84253.56;5071083;28;20214;-55
2023/09/16 10:28:52;;;;;;;21.02;18.85;;;;;;;-144.30;81.71;84233.69;5071158;28;20200;-55
2023/09/16 10:31:22;;;;;;;22.17;19.70;;;;;;;-144.30;82.05;84231.69;5071810;28;20195;-56
2023/09/16 10:33:50;;;;;;;25.13;18.17;;;;;;;-144.30;81.96;84182.00;5071343;28;20587;-54
2023/09/16 10:36:18;;;;;;;18.83;16.98;;;;;;;-144.30;79.94;84136.31;5070772;28;20192;-54
2023/09/16 10:38:48;;;;;;;20.17;17.73;;;;;;;-144.30;79.57;84146.25;5070287;28;20210;-54
2023/09/16 10:41:17;;;;;;;18.10;16.02;;;;;;;-144.30;78.13;84150.22;5070479;28;20755;-55
2023/09/16 10:43:44;;;;;;;17.17;15.23;;;;;;;-144.30;77.41;84136.31;5070820;28;20579;-55
2023/09/16 10:46:12;;;;;;;17.42;15.88;;;;;;;-144.30;76.46;84144.25;5070781;28;20207;-54
2023/09/16 10:48:40;;;;;;;18.63;15.55;;;;;;;-144.30;76.12;84136.31;5071266;28;20191;-54
2023/09/16 10:51:14;;;;;;;19.42;16.70;;;;;;;-144.30;76.34;84076.69;5071131;28;20557;-55
2023/09/16 10:53:45;;;;;;;19.70;17.67;;;;;;;-144.30;76.54;84068.75;5071447;28;20595;-54
2023/09/16 10:56:17;;;;;;;20.65;17.20;;;;;;;-144.30;76.97;84094.56;5071868;28;20200;-54
2023/09/16 10:58:47;;;;;;;21.70;16.98;;;;;;;-144.30;78.11;84100.53;5066697;28;20196;-54
2023/09/16 11:01:19;;;;;;;20.55;18.23;;;;;;;-144.30;79.29;84144.25;5068914;28;20224;-53
2023/09/16 11:03:52;;;;;;;19.75;17.85;;;;;;;-144.30;79.50;84144.25;5070429;28;20192;-53